Terminal Aerodrome Forecast
Issued by NWS Chicago, IL

Home | Current Version | Previous Version | Text Only | Print | Product List | Glossary Off
Versions: 1 2 3 4 5 6 7 8 9 10 11 12 13 14 15 16 17 18 19 20 21 22 23 24 25

000
FTUS43 KLOT 242101 AAA
TAFRFD
TAF AMD
KRFD 242101Z 2421/2518 29016G24KT P6SM BKN070
      TEMPO 2423/2502 6SM -SHRA
     FM250200 26006KT P6SM FEW070
     FM251500 29013G20KT P6SM SCT035 BKN045=

USA.gov is the U.S. government's official web portal to all federal, state and local government web resources and services.